Time;durP1;ratioP1;P1;durP2;ratioP2;P2;SDS_P1;SDS_P2;PMS_P1;PMS_P2;Temp;Humidity;BMP_temperature;BMP_pressure;BME280_temperature;BME280_humidity;BME280_pressure;Samples;Min_cycle;Max_cycle;Signal;HPM_P1;HPM_P2
2022/02/17 00:00:25;;;;;;;4.68;4.38;;;3.00;99.90;;;;;;5062741;28;20210;-69
2022/02/17 00:02:53;;;;;;;4.13;3.83;;;3.10;99.90;;;;;;5063417;28;20251;-70
2022/02/17 00:05:23;;;;;;;4.50;4.20;;;3.10;99.90;;;;;;5068230;28;20276;-70
2022/02/17 00:07:51;;;;;;;4.63;4.32;;;3.00;99.90;;;;;;5068001;28;20657;-69
2022/02/17 00:10:20;;;;;;;4.75;4.45;;;3.00;99.90;;;;;;5067177;28;20218;-69
2022/02/17 00:12:47;;;;;;;4.85;4.55;;;3.00;99.90;;;;;;5064852;28;20279;-70
2022/02/17 00:15:15;;;;;;;4.70;4.40;;;3.00;99.90;;;;;;5059568;28;20298;-70
2022/02/17 00:17:42;;;;;;;4.78;4.47;;;2.90;99.90;;;;;;5063065;28;20297;-69
2022/02/17 00:20:10;;;;;;;4.65;4.35;;;2.90;99.90;;;;;;5060794;28;20206;-70
2022/02/17 00:22:39;;;;;;;4.95;4.65;;;2.90;99.90;;;;;;5066481;28;20193;-69
2022/02/17 00:25:07;;;;;;;3.92;3.72;;;2.90;99.90;;;;;;5066976;28;20252;-70
2022/02/17 00:27:34;;;;;;;4.78;4.38;;;2.80;99.90;;;;;;5063365;28;20220;-69
2022/02/17 00:30:01;;;;;;;4.93;4.63;;;2.80;99.90;;;;;;5056325;28;20225;-69
2022/02/17 00:32:28;;;;;;;4.85;4.55;;;2.80;99.90;;;;;;5067168;28;20199;-70
2022/02/17 00:34:56;;;;;;;4.60;4.32;;;2.90;99.90;;;;;;5062472;28;21253;-69
2022/02/17 00:37:23;;;;;;;4.47;4.18;;;2.90;99.90;;;;;;5061086;28;20665;-69
2022/02/17 00:39:51;;;;;;;4.65;4.35;;;2.80;99.90;;;;;;5058614;28;20244;-69
2022/02/17 00:42:19;;;;;;;4.30;4.07;;;2.80;99.90;;;;;;5063410;28;20190;-69
2022/02/17 00:44:49;;;;;;;4.65;4.35;;;2.80;99.90;;;;;;5064863;28;20287;-69
2022/02/17 00:47:17;;;;;;;4.40;4.10;;;2.90;99.90;;;;;;5064816;28;20217;-69
2022/02/17 00:49:44;;;;;;;4.80;4.50;;;2.90;99.90;;;;;;5067022;28;20226;-69
2022/02/17 00:52:11;;;;;;;4.28;3.97;;;2.80;99.90;;;;;;5060107;28;20271;-69
2022/02/17 00:54:39;;;;;;;4.53;4.22;;;2.80;99.90;;;;;;5065650;28;20273;-71
2022/02/17 00:57:07;;;;;;;4.60;4.30;;;2.80;99.90;;;;;;5062357;28;20199;-69
2022/02/17 00:59:34;;;;;;;5.38;4.90;;;2.80;99.90;;;;;;5058090;28;20222;-69
2022/02/17 01:02:01;;;;;;;4.55;4.32;;;2.80;99.90;;;;;;5062081;28;20214;-69
2022/02/17 01:04:28;;;;;;;4.80;4.50;;;2.80;99.90;;;;;;5065478;28;20230;-71
2022/02/17 01:06:55;;;;;;;4.13;3.92;;;2.80;99.90;;;;;;5060579;28;20260;-69
2022/02/17 01:09:22;;;;;;;4.68;4.38;;;2.80;99.90;;;;;;5061256;28;20221;-70
2022/02/17 01:11:49;;;;;;;4.82;4.53;;;2.70;99.90;;;;;;5058570;28;20199;-69
2022/02/17 01:14:18;;;;;;;5.13;4.72;;;2.70;99.90;;;;;;5059767;28;20479;-69
2022/02/17 01:16:46;;;;;;;4.97;4.68;;;2.70;99.90;;;;;;5069513;28;20185;-69
2022/02/17 01:19:13;;;;;;;4.53;4.22;;;2.70;99.90;;;;;;5065628;28;20230;-69
2022/02/17 01:21:40;;;;;;;4.63;4.38;;;2.60;99.90;;;;;;5065544;28;20713;-70
2022/02/17 01:24:08;;;;;;;4.05;3.75;;;2.70;99.90;;;;;;5067829;28;20214;-71
2022/02/17 01:26:35;;;;;;;4.80;4.50;;;2.70;99.90;;;;;;5073177;28;20194;-70
2022/02/17 01:29:02;;;;;;;4.40;4.10;;;2.70;99.90;;;;;;5068232;28;20225;-69
2022/02/17 01:31:30;;;;;;;4.63;4.32;;;2.70;99.90;;;;;;5065540;28;20202;-69
2022/02/17 01:33:57;;;;;;;4.50;4.25;;;2.70;99.90;;;;;;5066359;28;20218;-69
2022/02/17 01:36:24;;;;;;;4.25;4.03;;;2.70;99.90;;;;;;5069302;28;20267;-69
2022/02/17 01:38:51;;;;;;;4.57;4.28;;;2.70;99.90;;;;;;5067139;28;20226;-69
2022/02/17 01:41:18;;;;;;;5.25;4.90;;;2.70;99.90;;;;;;5065670;28;20218;-69
2022/02/17 01:43:49;;;;;;;4.90;4.60;;;2.80;99.90;;;;;;5067058;28;20194;-69
2022/02/17 01:46:16;;;;;;;5.47;5.05;;;2.80;99.90;;;;;;5064408;28;20291;-69
2022/02/17 01:48:45;;;;;;;5.53;5.10;;;2.80;99.90;;;;;;5063341;28;20206;-69
2022/02/17 01:51:12;;;;;;;4.85;4.50;;;2.80;99.90;;;;;;5067275;28;20209;-69
2022/02/17 01:53:39;;;;;;;4.78;4.47;;;2.70;99.90;;;;;;5067563;28;20878;-69
2022/02/17 01:56:06;;;;;;;5.18;4.88;;;2.80;99.90;;;;;;5063332;28;20314;-69
2022/02/17 01:58:34;;;;;;;4.72;4.43;;;2.70;99.90;;;;;;5070668;28;20205;-69
2022/02/17 02:01:03;;;;;;;4.32;4.13;;;2.70;99.90;;;;;;5064973;28;21459;-69
2022/02/17 02:03:30;;;;;;;4.93;4.60;;;2.70;99.90;;;;;;5070146;28;20199;-70
2022/02/17 02:05:59;;;;;;;4.70;4.40;;;2.70;99.90;;;;;;5065256;28;20566;-69
2022/02/17 02:08:26;;;;;;;5.05;4.75;;;2.70;99.90;;;;;;5066579;28;20290;-69
2022/02/17 02:10:53;;;;;;;4.68;4.38;;;2.70;99.90;;;;;;5065164;28;20235;-71
2022/02/17 02:13:20;;;;;;;4.55;4.25;;;2.70;99.90;;;;;;5066187;28;20194;-69
2022/02/17 02:15:50;;;;;;;5.20;4.90;;;2.70;99.90;;;;;;5067721;28;20282;-69
2022/02/17 02:18:19;;;;;;;5.13;4.82;;;2.70;99.90;;;;;;5067995;28;20283;-70
2022/02/17 02:20:49;;;;;;;5.60;5.20;;;2.70;99.90;;;;;;5061649;28;20213;-69
2022/02/17 02:23:16;;;;;;;5.57;5.18;;;2.60;99.90;;;;;;5068487;28;20194;-70
2022/02/17 02:25:47;;;;;;;5.97;5.50;;;2.60;99.90;;;;;;5070503;28;20221;-69
2022/02/17 02:28:18;;;;;;;6.15;5.75;;;2.50;99.90;;;;;;5064422;28;20271;-69
2022/02/17 02:30:45;;;;;;;5.65;5.25;;;2.50;99.90;;;;;;5063893;28;20279;-71
2022/02/17 02:33:12;;;;;;;6.18;5.78;;;2.40;99.90;;;;;;5067855;28;20645;-70
2022/02/17 02:35:40;;;;;;;6.25;5.82;;;2.40;99.90;;;;;;5066816;28;20240;-72
2022/02/17 02:38:09;;;;;;;5.35;5.05;;;2.40;99.90;;;;;;5064477;28;20230;-70
2022/02/17 02:40:36;;;;;;;6.47;5.97;;;2.40;99.90;;;;;;5065251;28;20367;-69
2022/02/17 02:43:03;;;;;;;5.78;5.38;;;2.40;99.90;;;;;;5064918;28;20258;-69
2022/02/17 02:45:31;;;;;;;6.70;6.20;;;2.40;99.90;;;;;;5063485;28;20218;-69
2022/02/17 02:47:58;;;;;;;7.50;7.00;;;2.30;99.90;;;;;;5061833;28;20229;-70
2022/02/17 02:50:26;;;;;;;6.75;6.30;;;2.30;99.90;;;;;;5063951;28;21004;-69
2022/02/17 02:52:53;;;;;;;6.82;6.43;;;2.30;99.90;;;;;;5065141;28;20198;-69
2022/02/17 02:55:21;;;;;;;5.72;5.32;;;2.30;99.90;;;;;;5066122;28;20227;-70
2022/02/17 02:57:48;;;;;;;5.50;5.10;;;2.20;99.90;;;;;;5071805;28;20640;-69
2022/02/17 03:00:16;;;;;;;6.05;5.65;;;2.20;99.90;;;;;;5065128;28;20218;-72
2022/02/17 03:02:43;;;;;;;5.55;5.15;;;2.20;99.90;;;;;;5067947;28;20757;-69
2022/02/17 03:05:11;;;;;;;5.72;5.28;;;2.20;99.90;;;;;;5064936;28;20325;-71
2022/02/17 03:07:38;;;;;;;5.95;5.45;;;2.30;99.90;;;;;;5067480;28;20198;-71
2022/02/17 03:10:06;;;;;;;5.43;5.10;;;2.20;99.90;;;;;;5065447;28;20209;-70
2022/02/17 03:12:36;;;;;;;5.78;5.32;;;2.30;99.90;;;;;;5068820;28;20197;-70
2022/02/17 03:15:04;;;;;;;5.47;5.07;;;2.30;99.90;;;;;;5065111;28;20214;-71
2022/02/17 03:17:31;;;;;;;5.50;5.20;;;2.30;99.90;;;;;;5066980;28;20655;-70
2022/02/17 03:19:58;;;;;;;5.82;5.43;;;2.30;99.90;;;;;;5062584;28;20264;-70
2022/02/17 03:22:26;;;;;;;5.78;5.40;;;2.30;99.90;;;;;;5064319;28;20201;-69
2022/02/17 03:24:53;;;;;;;5.53;5.13;;;2.20;99.90;;;;;;5066922;28;20221;-69
2022/02/17 03:27:20;;;;;;;5.63;5.22;;;2.20;99.90;;;;;;5063358;28;20186;-69
2022/02/17 03:29:48;;;;;;;5.97;5.47;;;2.20;99.90;;;;;;5062994;28;20211;-71
2022/02/17 03:32:15;;;;;;;5.43;5.03;;;2.20;99.90;;;;;;5067761;28;20194;-70
2022/02/17 03:34:42;;;;;;;5.68;5.35;;;2.20;99.90;;;;;;5070660;28;20588;-70
2022/02/17 03:37:10;;;;;;;5.30;5.00;;;2.20;99.90;;;;;;5063214;28;20203;-70
2022/02/17 03:39:37;;;;;;;5.60;5.20;;;2.20;99.90;;;;;;5067756;28;20220;-69
2022/02/17 03:42:05;;;;;;;4.60;4.30;;;2.20;99.90;;;;;;5066193;28;20194;-69
2022/02/17 03:44:32;;;;;;;5.82;5.43;;;2.30;99.90;;;;;;5069515;28;20275;-69
2022/02/17 03:47:01;;;;;;;5.57;5.18;;;2.30;99.90;;;;;;5068147;28;20203;-69
2022/02/17 03:49:28;;;;;;;4.88;4.57;;;2.20;99.90;;;;;;5066327;28;20593;-70
2022/02/17 03:51:55;;;;;;;5.68;5.38;;;2.20;99.90;;;;;;5068402;28;20236;-70
2022/02/17 03:54:22;;;;;;;5.55;5.15;;;2.20;99.90;;;;;;5061189;28;20229;-69
2022/02/17 03:56:49;;;;;;;5.60;5.20;;;2.20;99.90;;;;;;5066017;28;20644;-70
2022/02/17 03:59:16;;;;;;;5.28;4.97;;;2.20;99.90;;;;;;5065971;28;20198;-69
2022/02/17 04:01:44;;;;;;;4.20;4.00;;;2.20;99.90;;;;;;5069941;28;20680;-69
2022/02/17 04:04:13;;;;;;;5.25;4.95;;;2.20;99.90;;;;;;5063819;28;20235;-71
2022/02/17 04:06:40;;;;;;;4.57;4.28;;;2.20;99.90;;;;;;5063268;28;20194;-71
2022/02/17 04:09:07;;;;;;;4.60;4.30;;;2.20;99.90;;;;;;5060353;28;20701;-69
2022/02/17 04:11:35;;;;;;;5.32;5.03;;;2.20;99.90;;;;;;5069827;28;20290;-69
2022/02/17 04:14:03;;;;;;;5.07;4.78;;;2.20;99.90;;;;;;5071577;28;20205;-71
2022/02/17 04:16:30;;;;;;;5.25;4.85;;;2.20;99.90;;;;;;5061998;28;20230;-70
2022/02/17 04:18:58;;;;;;;5.07;4.78;;;2.20;99.90;;;;;;5061985;28;20202;-69
2022/02/17 04:21:27;;;;;;;4.90;4.60;;;2.20;99.90;;;;;;5065931;28;20214;-70
2022/02/17 04:23:54;;;;;;;5.50;5.13;;;2.20;99.90;;;;;;5071287;28;20228;-69
2022/02/17 04:26:22;;;;;;;5.18;4.88;;;2.30;99.90;;;;;;5065423;28;20283;-70
2022/02/17 04:28:50;;;;;;;4.97;4.68;;;2.30;99.90;;;;;;5062949;28;20190;-69
2022/02/17 04:31:17;;;;;;;5.30;5.00;;;2.30;99.90;;;;;;5064837;28;20222;-69
2022/02/17 04:33:46;;;;;;;4.70;4.40;;;2.30;99.90;;;;;;5067806;28;20289;-69
2022/02/17 04:36:13;;;;;;;4.97;4.68;;;2.30;99.90;;;;;;5066196;28;20507;-69
2022/02/17 04:38:42;;;;;;;5.38;5.07;;;2.30;99.90;;;;;;5069709;28;20292;-72
2022/02/17 04:43:53;;;;;;;4.28;4.07;;;2.30;99.90;;;;;;5071695;28;20243;-72
2022/02/17 04:46:20;;;;;;;5.15;4.85;;;2.30;99.90;;;;;;5067923;28;20226;-69
2022/02/17 04:48:47;;;;;;;4.53;4.22;;;2.30;99.90;;;;;;5068293;28;20652;-69
2022/02/17 04:51:14;;;;;;;4.90;4.60;;;2.30;99.90;;;;;;5060268;28;20222;-70
2022/02/17 04:53:43;;;;;;;4.90;4.60;;;2.30;99.90;;;;;;5069522;28;20706;-69
2022/02/17 04:56:10;;;;;;;4.75;4.45;;;2.30;99.90;;;;;;5068801;28;20226;-71
2022/02/17 04:58:37;;;;;;;4.88;4.57;;;2.30;99.90;;;;;;5069004;28;20259;-70
2022/02/17 05:01:04;;;;;;;4.65;4.38;;;2.30;99.90;;;;;;5069450;28;20274;-70
2022/02/17 05:03:31;;;;;;;4.82;4.53;;;2.30;99.90;;;;;;5072916;28;20205;-69
2022/02/17 05:06:02;;;;;;;5.15;4.78;;;2.20;99.90;;;;;;5069359;28;20233;-69
2022/02/17 05:08:29;;;;;;;5.20;4.80;;;2.20;99.90;;;;;;5069690;28;20222;-71
2022/02/17 05:10:57;;;;;;;5.13;4.82;;;2.20;99.90;;;;;;5071223;28;20748;-70
2022/02/17 05:13:24;;;;;;;4.78;4.47;;;2.20;99.90;;;;;;5069598;28;20213;-70
2022/02/17 05:15:51;;;;;;;5.07;4.78;;;2.20;99.90;;;;;;5073399;28;20709;-69
2022/02/17 05:18:18;;;;;;;4.80;4.50;;;2.20;99.90;;;;;;5067187;28;20263;-69
2022/02/17 05:20:45;;;;;;;4.90;4.60;;;2.20;99.90;;;;;;5063041;28;20878;-70
2022/02/17 05:23:13;;;;;;;5.63;5.30;;;2.20;99.90;;;;;;5065806;28;20202;-70
2022/02/17 05:25:40;;;;;;;6.70;6.20;;;2.10;99.90;;;;;;5068680;28;20221;-72
2022/02/17 05:28:09;;;;;;;5.30;4.90;;;2.00;99.90;;;;;;5066736;28;20239;-70
2022/02/17 05:30:41;;;;;;;5.65;5.25;;;2.00;99.90;;;;;;5069281;28;22100;-71
2022/02/17 05:33:09;;;;;;;5.90;5.45;;;2.00;99.90;;;;;;5061889;28;20286;-70
2022/02/17 05:35:36;;;;;;;5.18;4.82;;;2.00;99.90;;;;;;5065863;28;20218;-70
2022/02/17 05:38:03;;;;;;;5.78;5.38;;;2.00;99.90;;;;;;5070007;28;20197;-70
2022/02/17 05:40:30;;;;;;;5.28;4.97;;;1.90;99.90;;;;;;5067600;28;20210;-71
2022/02/17 05:42:58;;;;;;;5.88;5.38;;;1.80;99.90;;;;;;5069919;28;20194;-70
2022/02/17 05:45:27;;;;;;;5.32;5.03;;;1.80;99.90;;;;;;5064130;28;20218;-73
2022/02/17 05:47:54;;;;;;;5.20;4.90;;;1.80;99.90;;;;;;5066105;28;20240;-69
2022/02/17 05:50:22;;;;;;;5.45;5.15;;;1.80;99.90;;;;;;5061075;28;20227;-73
2022/02/17 05:52:49;;;;;;;6.25;5.85;;;1.80;99.90;;;;;;5066579;28;20213;-70
2022/02/17 05:55:16;;;;;;;6.95;6.35;;;1.80;99.90;;;;;;5073817;28;20263;-70
2022/02/17 05:57:44;;;;;;;7.30;6.70;;;1.80;99.90;;;;;;5075479;28;20194;-70
2022/02/17 06:00:12;;;;;;;7.13;6.57;;;1.80;99.90;;;;;;5061887;28;20815;-71
2022/02/17 06:02:41;;;;;;;6.22;5.72;;;1.70;99.90;;;;;;5070792;28;20191;-71
2022/02/17 06:05:10;;;;;;;5.97;5.57;;;1.70;99.90;;;;;;5064244;28;20241;-72
2022/02/17 06:07:37;;;;;;;5.97;5.57;;;1.70;99.90;;;;;;5069736;28;20811;-70
2022/02/17 06:10:05;;;;;;;5.53;5.13;;;1.70;99.90;;;;;;5073646;28;20213;-70
2022/02/17 06:12:32;;;;;;;5.10;4.75;;;1.70;99.90;;;;;;5062639;28;20988;-72
2022/02/17 06:14:59;;;;;;;5.75;5.35;;;1.70;99.90;;;;;;5068688;28;20230;-71
2022/02/17 06:17:26;;;;;;;5.20;4.82;;;1.70;99.90;;;;;;5069687;28;20202;-73
2022/02/17 06:19:54;;;;;;;5.50;5.10;;;1.70;99.90;;;;;;5066316;28;20662;-71
2022/02/17 06:22:21;;;;;;;4.93;4.63;;;1.70;99.90;;;;;;5067698;28;20200;-72
2022/02/17 06:24:48;;;;;;;5.82;5.43;;;1.70;99.90;;;;;;5068276;28;20311;-70
2022/02/17 06:27:15;;;;;;;5.95;5.55;;;1.70;99.90;;;;;;5073741;28;20202;-75
2022/02/17 06:29:42;;;;;;;6.05;5.65;;;1.70;99.90;;;;;;5074933;28;20251;-71
2022/02/17 06:32:10;;;;;;;5.97;5.47;;;1.70;99.90;;;;;;5067159;28;20213;-70
2022/02/17 06:34:37;;;;;;;5.30;5.00;;;1.70;99.90;;;;;;5071073;28;20218;-71
2022/02/17 06:37:06;;;;;;;5.40;5.10;;;1.80;99.90;;;;;;5076961;28;20270;-72
2022/02/17 06:39:33;;;;;;;5.40;5.10;;;1.80;99.90;;;;;;5072979;28;20714;-73
2022/02/17 06:42:01;;;;;;;6.13;5.63;;;1.90;99.90;;;;;;5064509;28;20211;-71
2022/02/17 06:44:28;;;;;;;5.35;5.03;;;1.90;99.90;;;;;;5065404;28;20275;-72
2022/02/17 06:46:55;;;;;;;5.43;5.00;;;1.90;99.90;;;;;;5068510;28;20214;-71
2022/02/17 06:49:23;;;;;;;5.25;4.95;;;1.90;99.90;;;;;;5069239;28;20223;-70
2022/02/17 06:51:50;;;;;;;5.22;4.82;;;1.90;99.90;;;;;;5065719;28;20222;-70
2022/02/17 06:54:19;;;;;;;4.90;4.60;;;2.00;99.90;;;;;;5070517;28;20198;-71
2022/02/17 06:56:46;;;;;;;5.30;4.97;;;2.00;99.90;;;;;;5069363;28;20227;-70
2022/02/17 06:59:13;;;;;;;4.82;4.53;;;2.00;99.90;;;;;;5067524;28;20203;-70
2022/02/17 07:01:40;;;;;;;5.32;4.93;;;1.90;99.90;;;;;;5068642;28;20217;-71
2022/02/17 07:04:08;;;;;;;5.38;5.05;;;1.90;99.90;;;;;;5066585;28;20195;-71
2022/02/17 07:06:35;;;;;;;5.07;4.78;;;2.00;99.90;;;;;;5075477;28;20222;-71
2022/02/17 07:09:02;;;;;;;5.35;4.85;;;2.00;99.90;;;;;;5074616;28;20238;-70
2022/02/17 07:11:33;;;;;;;4.55;4.35;;;2.10;99.90;;;;;;5070039;28;20225;-71
2022/02/17 07:14:00;;;;;;;4.72;4.43;;;2.20;99.90;;;;;;5062257;28;20649;-70
2022/02/17 07:16:27;;;;;;;4.95;4.65;;;2.20;99.90;;;;;;5063090;28;20218;-71
2022/02/17 07:18:54;;;;;;;5.82;5.35;;;2.20;99.90;;;;;;5063845;28;20256;-71
2022/02/17 07:21:21;;;;;;;5.30;5.00;;;2.20;99.90;;;;;;5070996;28;20264;-72
2022/02/17 07:23:48;;;;;;;5.40;5.10;;;2.20;99.90;;;;;;5070968;28;20530;-71
2022/02/17 07:26:15;;;;;;;4.78;4.47;;;2.20;99.90;;;;;;5071005;28;20213;-71
2022/02/17 07:28:44;;;;;;;4.88;4.57;;;2.30;99.90;;;;;;5068649;28;20193;-71
2022/02/17 07:31:13;;;;;;;5.47;5.13;;;2.40;99.90;;;;;;5066585;28;20301;-71
2022/02/17 07:33:40;;;;;;;5.53;5.13;;;3.30;99.90;;;;;;5063185;28;20202;-71
2022/02/17 07:36:09;;;;;;;5.90;5.50;;;4.20;99.90;;;;;;5069322;28;20225;-72
2022/02/17 07:38:36;;;;;;;6.15;5.65;;;5.10;99.90;;;;;;5062744;28;20193;-71
2022/02/17 07:41:04;;;;;;;5.88;5.45;;;6.00;99.90;;;;;;5065430;28;20210;-72
2022/02/17 07:43:31;;;;;;;6.68;6.18;;;6.90;99.90;;;;;;5068966;28;20247;-72
2022/02/17 07:46:00;;;;;;;5.20;4.80;;;7.70;99.90;;;;;;5064715;28;20793;-70
2022/02/17 07:48:28;;;;;;;5.43;5.03;;;8.40;99.90;;;;;;5057322;28;20217;-71
2022/02/17 07:50:56;;;;;;;5.43;5.03;;;8.70;99.90;;;;;;5056092;28;20214;-71
2022/02/17 07:53:23;;;;;;;6.20;5.63;;;9.10;99.90;;;;;;5063251;28;20202;-71
2022/02/17 07:55:50;;;;;;;6.32;5.82;;;9.60;99.90;;;;;;5057407;28;20244;-71
2022/02/17 07:58:17;;;;;;;5.32;4.93;;;9.90;99.90;;;;;;5061267;28;20263;-72
2022/02/17 08:00:45;;;;;;;5.88;5.47;;;10.20;99.90;;;;;;5056541;28;20230;-73
2022/02/17 08:03:14;;;;;;;5.75;5.25;;;10.50;99.90;;;;;;5058174;28;20186;-72
2022/02/17 08:05:42;;;;;;;6.38;5.88;;;10.90;99.90;;;;;;5059725;28;20217;-71
2022/02/17 08:08:10;;;;;;;6.80;6.15;;;11.00;99.90;;;;;;5065108;28;20194;-71
2022/02/17 08:10:37;;;;;;;6.35;5.85;;;11.30;99.90;;;;;;5057103;28;20226;-71
2022/02/17 08:13:05;;;;;;;6.57;6.07;;;11.50;99.90;;;;;;5062137;28;20225;-71
2022/02/17 08:15:32;;;;;;;6.05;5.57;;;11.70;99.90;;;;;;5062822;28;20290;-72
2022/02/17 08:18:00;;;;;;;5.05;4.65;;;11.90;99.90;;;;;;5063333;28;20206;-71
2022/02/17 08:20:28;;;;;;;5.35;4.95;;;12.10;99.90;;;;;;5063355;28;20252;-71
2022/02/17 08:22:57;;;;;;;4.68;4.32;;;12.20;99.90;;;;;;5065630;28;20221;-71
2022/02/17 08:25:25;;;;;;;4.85;4.45;;;12.30;99.90;;;;;;5056797;28;20226;-72
2022/02/17 08:27:53;;;;;;;5.25;4.75;;;12.50;99.90;;;;;;5061071;28;20224;-72
2022/02/17 08:30:21;;;;;;;4.60;4.20;;;12.70;99.90;;;;;;5068364;28;20713;-70
2022/02/17 08:32:49;;;;;;;5.18;4.70;;;12.90;99.90;;;;;;5065868;28;20256;-73
2022/02/17 08:35:16;;;;;;;4.93;4.53;;;13.20;99.90;;;;;;5070972;28;20221;-71
2022/02/17 08:37:45;;;;;;;5.63;5.15;;;13.50;99.90;;;;;;5063052;28;20205;-72
2022/02/17 08:40:13;;;;;;;4.90;4.50;;;13.70;99.90;;;;;;5059492;28;20595;-71
2022/02/17 08:42:41;;;;;;;4.45;4.15;;;13.80;99.90;;;;;;5065752;28;20705;-72
2022/02/17 08:45:10;;;;;;;5.57;5.07;;;13.90;99.90;;;;;;5068823;28;20214;-73
2022/02/17 08:47:37;;;;;;;5.10;4.60;;;14.00;99.90;;;;;;5056060;28;20222;-73
2022/02/17 08:50:06;;;;;;;4.95;4.43;;;14.10;99.90;;;;;;5053645;28;20195;-73
2022/02/17 08:52:33;;;;;;;4.28;3.97;;;14.10;99.90;;;;;;5063723;28;20268;-72
2022/02/17 08:55:02;;;;;;;4.15;3.85;;;14.00;99.90;;;;;;5068494;28;20217;-72
2022/02/17 08:57:29;;;;;;;3.97;3.67;;;13.90;99.90;;;;;;5058678;28;20225;-72
2022/02/17 08:59:56;;;;;;;4.18;3.88;;;14.20;99.90;;;;;;5065945;28;20198;-72
2022/02/17 09:02:23;;;;;;;7.07;5.43;;;14.40;99.90;;;;;;5063796;28;20268;-71
2022/02/17 09:04:50;;;;;;;6.43;5.82;;;13.90;99.90;;;;;;5071037;28;20782;-72
2022/02/17 09:07:17;;;;;;;7.20;6.50;;;13.40;99.90;;;;;;5068143;28;20224;-72
2022/02/17 09:09:44;;;;;;;6.72;6.13;;;13.10;99.90;;;;;;5061393;28;20734;-71
2022/02/17 09:12:12;;;;;;;7.18;6.47;;;13.20;99.90;;;;;;5068169;28;20261;-71
2022/02/17 09:14:39;;;;;;;6.35;5.85;;;13.40;99.90;;;;;;5066473;28;20211;-71
2022/02/17 09:17:06;;;;;;;6.78;6.05;;;13.70;99.90;;;;;;5065141;28;20301;-72
2022/02/17 09:19:35;;;;;;;7.93;5.82;;;14.00;99.90;;;;;;5073930;28;20206;-72
2022/02/17 09:22:03;;;;;;;6.95;6.07;;;14.20;99.90;;;;;;5066244;28;20311;-72
2022/02/17 09:24:30;;;;;;;5.55;5.05;;;14.10;99.90;;;;;;5072478;28;20750;-71
2022/02/17 09:26:57;;;;;;;5.95;5.45;;;14.00;99.90;;;;;;5066513;28;20218;-73
2022/02/17 09:29:25;;;;;;;6.00;5.40;;;14.20;99.90;;;;;;5066161;28;20201;-73
2022/02/17 09:31:52;;;;;;;5.50;5.00;;;14.70;99.90;;;;;;5062089;28;20668;-72
2022/02/17 09:34:19;;;;;;;5.03;4.57;;;14.90;99.90;;;;;;5062934;28;20222;-72
2022/02/17 09:36:46;;;;;;;6.55;5.28;;;14.50;99.90;;;;;;5062252;28;20214;-72
2022/02/17 09:39:13;;;;;;;5.53;5.03;;;14.20;99.90;;;;;;5073563;28;20251;-72
2022/02/17 09:41:41;;;;;;;6.05;5.55;;;14.00;99.90;;;;;;5069155;28;20217;-71
2022/02/17 09:44:10;;;;;;;5.78;5.38;;;13.80;99.90;;;;;;5071356;28;20400;-72
2022/02/17 09:46:44;;;;;;;5.97;5.45;;;13.60;99.90;;;;;;5067612;28;20891;-72
2022/02/17 09:49:16;;;;;;;7.93;5.57;;;13.60;99.90;;;;;;5068874;28;20202;-72
2022/02/17 09:51:44;;;;;;;6.10;5.50;;;13.40;99.90;;;;;;5075463;28;20562;-72
2022/02/17 09:54:11;;;;;;;7.70;5.88;;;13.60;99.90;;;;;;5072879;28;20579;-72
2022/02/17 09:56:38;;;;;;;6.63;5.65;;;13.70;99.90;;;;;;5061222;28;20271;-72
2022/02/17 09:59:06;;;;;;;6.75;6.15;;;13.60;99.90;;;;;;5071230;28;20198;-71
2022/02/17 10:01:33;;;;;;;7.07;5.88;;;13.70;99.90;;;;;;5074615;28;21051;-71
2022/02/17 10:04:13;;;;;;;6.05;5.55;;;13.90;99.90;;;;;;5073746;28;20602;-71
2022/02/17 10:06:43;;;;;;;5.30;4.88;;;14.50;99.90;;;;;;5068875;28;20226;-71
2022/02/17 10:09:10;;;;;;;6.35;5.57;;;14.70;99.90;;;;;;5064935;28;20202;-72
2022/02/17 10:11:39;;;;;;;5.47;4.97;;;14.90;99.90;;;;;;5073095;28;20226;-71
2022/02/17 10:14:08;;;;;;;5.68;5.20;;;14.80;99.90;;;;;;5071049;28;20236;-72
2022/02/17 10:16:54;;;;;;;6.32;5.78;;;14.60;99.90;;;;;;5070938;28;20308;-71
2022/02/17 10:19:23;;;;;;;6.22;5.47;;;14.40;99.90;;;;;;5067663;28;20209;-72
2022/02/17 10:21:59;;;;;;;6.32;5.72;;;14.40;99.90;;;;;;5070366;28;20631;-72
2022/02/17 10:24:41;;;;;;;6.40;5.80;;;14.00;99.90;;;;;;5078226;28;20213;-71
2022/02/17 10:27:10;;;;;;;5.45;5.03;;;13.10;99.90;;;;;;5070949;28;20282;-72
2022/02/17 10:29:38;;;;;;;5.70;5.20;;;12.70;99.90;;;;;;5071223;28;20206;-72
2022/02/17 10:32:10;;;;;;;5.28;4.88;;;12.80;99.90;;;;;;5072903;28;20218;-72
2022/02/17 10:34:39;;;;;;;5.07;4.60;;;12.90;99.90;;;;;;5066142;28;20224;-72
2022/02/17 10:37:07;;;;;;;5.53;5.03;;;13.10;99.90;;;;;;5075651;28;20213;-72
2022/02/17 10:39:37;;;;;;;6.00;5.50;;;13.30;99.90;;;;;;5067790;28;20201;-72
2022/02/17 10:42:07;;;;;;;5.55;5.05;;;13.10;99.90;;;;;;5058759;28;20575;-72
2022/02/17 10:44:36;;;;;;;5.55;5.15;;;12.90;99.90;;;;;;5070210;28;20219;-72
2022/02/17 10:47:14;;;;;;;5.88;5.28;;;13.10;99.90;;;;;;5072440;28;20855;-72
2022/02/17 10:49:43;;;;;;;5.20;4.70;;;13.20;99.90;;;;;;5068507;28;20198;-73
2022/02/17 10:52:10;;;;;;;5.10;4.70;;;13.40;99.90;;;;;;5069572;28;20267;-72
2022/02/17 10:54:38;;;;;;;4.53;4.07;;;13.60;99.90;;;;;;5069659;28;20228;-72
2022/02/17 10:57:05;;;;;;;4.28;3.83;;;14.00;99.90;;;;;;5070851;28;20264;-73
2022/02/17 11:02:23;;;;;;;4.40;4.10;;;14.00;99.90;;;;;;5066455;28;20221;-71
2022/02/17 11:04:51;;;;;;;4.40;3.85;;;14.20;99.90;;;;;;5069681;28;20781;-72
2022/02/17 11:07:20;;;;;;;4.43;4.07;;;14.00;99.90;;;;;;5063819;28;20222;-72
2022/02/17 11:09:48;;;;;;;4.30;3.90;;;14.30;99.90;;;;;;5074447;28;20270;-72
2022/02/17 11:12:16;;;;;;;4.50;4.20;;;14.50;99.90;;;;;;5064582;28;20233;-72
2022/02/17 11:14:45;;;;;;;4.05;3.75;;;14.60;99.90;;;;;;5067982;28;20288;-71
2022/02/17 11:17:15;;;;;;;4.07;3.78;;;14.60;99.90;;;;;;5059276;28;20232;-72
2022/02/17 11:19:43;;;;;;;4.78;4.28;;;14.10;99.90;;;;;;5064830;28;20198;-72
2022/02/17 11:22:12;;;;;;;4.80;4.40;;;13.80;99.90;;;;;;5062438;28;20727;-72
2022/02/17 11:24:49;;;;;;;4.55;4.15;;;13.60;99.90;;;;;;5061077;28;20705;-72
2022/02/17 11:27:17;;;;;;;4.18;3.78;;;13.80;99.90;;;;;;5062494;28;20233;-72
2022/02/17 11:29:45;;;;;;;5.70;4.18;;;14.00;99.90;;;;;;5055683;28;20190;-73
2022/02/17 11:32:14;;;;;;;4.82;4.35;;;14.40;99.90;;;;;;5070932;28;20771;-72
2022/02/17 11:34:44;;;;;;;4.93;4.43;;;14.60;99.90;;;;;;5062467;28;20224;-72
2022/02/17 11:37:42;;;;;;;4.95;4.45;;;14.50;99.90;;;;;;5062237;28;20226;-72
2022/02/17 11:40:11;;;;;;;4.72;4.32;;;14.40;99.90;;;;;;5064728;28;20283;-72
2022/02/17 11:42:42;;;;;;;5.20;3.97;;;14.50;99.90;;;;;;5063334;28;20213;-72
2022/02/17 11:45:15;;;;;;;4.32;3.95;;;14.30;99.90;;;;;;5066401;28;20246;-72
2022/02/17 11:48:02;;;;;;;5.13;4.70;;;14.40;99.90;;;;;;5065339;28;20224;-72
2022/02/17 11:50:34;;;;;;;4.50;4.15;;;14.80;99.90;;;;;;5061652;28;20205;-73
2022/02/17 11:53:24;;;;;;;4.88;4.47;;;14.40;99.90;;;;;;5062663;28;20275;-72
2022/02/17 11:55:51;;;;;;;5.07;4.60;;;13.90;99.90;;;;;;5061590;28;20218;-72
2022/02/17 11:58:43;;;;;;;5.93;5.25;;;14.20;99.90;;;;;;5066696;28;20557;-72
2022/02/17 12:01:40;;;;;;;4.60;4.18;;;14.50;99.90;;;;;;5050321;28;20195;-72
2022/02/17 12:04:15;;;;;;;5.30;4.80;;;14.80;99.90;;;;;;5059434;28;20209;-73
2022/02/17 12:06:45;;;;;;;5.25;4.75;;;14.80;99.90;;;;;;5067061;28;20219;-71
2022/02/17 12:09:37;;;;;;;4.72;4.13;;;14.70;99.90;;;;;;5058262;28;20287;-71
2022/02/17 12:12:23;;;;;;;5.07;4.68;;;14.90;99.90;;;;;;5067541;28;20217;-72
2022/02/17 12:14:52;;;;;;;4.60;4.22;;;15.00;99.90;;;;;;5064952;28;20229;-72
2022/02/17 12:17:28;;;;;;;4.22;3.92;;;14.50;99.90;;;;;;5063025;28;20217;-72
2022/02/17 12:20:06;;;;;;;4.22;3.83;;;14.50;99.90;;;;;;5061199;28;20643;-71
2022/02/17 12:22:35;;;;;;;4.13;3.83;;;14.60;99.90;;;;;;5064270;28;20224;-71
2022/02/17 12:25:25;;;;;;;4.50;4.20;;;14.50;99.90;;;;;;5064811;28;20231;-72
2022/02/17 12:27:55;;;;;;;5.18;4.43;;;14.30;99.90;;;;;;5059429;28;20230;-71
2022/02/17 12:30:36;;;;;;;5.05;4.65;;;14.00;99.90;;;;;;5059003;28;20256;-73
2022/02/17 12:33:15;;;;;;;4.80;4.40;;;14.00;99.90;;;;;;5064282;28;20783;-72
2022/02/17 12:35:45;;;;;;;4.45;4.05;;;13.70;99.90;;;;;;5060555;28;20229;-72
2022/02/17 12:38:14;;;;;;;4.75;4.35;;;13.90;99.90;;;;;;5064033;28;20218;-72
2022/02/17 12:40:44;;;;;;;5.03;4.72;;;13.90;99.90;;;;;;5061878;28;20190;-71
2022/02/17 12:43:15;;;;;;;4.60;4.20;;;13.50;99.90;;;;;;5058475;28;20214;-71
2022/02/17 12:45:46;;;;;;;4.65;4.25;;;13.40;99.90;;;;;;5064117;28;20213;-71
2022/02/17 12:48:15;;;;;;;4.38;3.97;;;13.40;99.90;;;;;;5057275;28;20653;-70
2022/02/17 12:50:42;;;;;;;4.97;4.57;;;13.40;99.90;;;;;;5063740;28;20912;-70
2022/02/17 12:53:10;;;;;;;4.95;4.55;;;13.40;99.90;;;;;;5059642;28;20217;-71
2022/02/17 12:55:46;;;;;;;6.13;4.63;;;13.50;99.90;;;;;;5060508;28;20221;-71
2022/02/17 12:58:14;;;;;;;4.25;3.95;;;13.80;99.90;;;;;;5065853;28;20225;-72
2022/02/17 13:00:43;;;;;;;5.40;4.65;;;13.70;99.90;;;;;;5069428;28;20652;-71
2022/02/17 13:03:11;;;;;;;5.30;4.63;;;13.70;99.90;;;;;;5059567;28;20656;-71
2022/02/17 13:08:36;;;;;;;4.88;4.45;;;13.80;99.90;;;;;;5059788;28;20252;-72